Las Vegas, Nevada
Current Conditions -  °F | °C
As of 11:56 AM on Wednesday 28 Jan 2015 (Local Time) from KLAS Reporting Station
Broken Clouds Broken Clouds  
Wind Chill: 15°   Ceiling: 25000
Heat Index: 15°   Visibility: 10mi
Dew Point:   Wind: 6mph
Humidity: 60%   Direction: 170°S
Pressure: 30.2"   Gusts: NA
Location:  36.17°N, 115.13°W
Report Text: KLAS 281956Z 17005KT 10SM FEW040 SCT200 BKN250 15/07 A3020 RMK AO2 SLP219 T01500072 $
Loading
Personal Weather Stations






























Interactive Weather Map New forecast layout! Learn more

10-Day Weather Forecast

Advertisements
Track Severe Weather on mobile